Time;durP1;ratioP1;P1;durP2;ratioP2;P2;SDS_P1;SDS_P2;PMS_P1;PMS_P2;Temp;Humidity;BMP_temperature;BMP_pressure;BME280_temperature;BME280_humidity;BME280_pressure;Samples;Min_cycle;Max_cycle;Signal;HPM_P1;HPM_P2
2022/04/27 00:00:29;;;;;;;2.37;1.90;;;;;;;1.38;60.41;101453.81;4991825;28;20633;-60
2022/04/27 00:02:58;;;;;;;2.03;1.70;;;;;;;1.44;60.33;101471.84;4974691;28;20310;-62
2022/04/27 00:05:25;;;;;;;3.10;2.40;;;;;;;1.36;60.70;101474.06;4995443;28;20632;-62
2022/04/27 00:07:51;;;;;;;2.83;2.23;;;;;;;1.31;61.03;101480.50;4995649;28;20034;-64
2022/04/27 00:10:19;;;;;;;3.13;1.83;;;;;;;1.39;61.05;101494.88;4995113;28;20269;-61
2022/04/27 00:12:45;;;;;;;3.70;2.10;;;;;;;1.37;61.46;101506.41;4995284;28;20409;-61
2022/04/27 00:15:12;;;;;;;3.93;2.23;;;;;;;1.14;61.42;101463.06;4995302;28;20265;-61
2022/04/27 00:17:38;;;;;;;2.83;2.20;;;;;;;1.34;61.58;101506.56;4995233;28;20331;-62
2022/04/27 00:20:05;;;;;;;4.33;2.40;;;;;;;1.08;61.44;101473.91;4995183;28;20273;-62
2022/04/27 00:22:30;;;;;;;6.57;3.03;;;;;;;1.19;61.60;101503.88;4995038;28;20564;-62
2022/04/27 00:25:02;;;;;;;3.30;2.37;;;;;;;1.17;61.89;101516.25;4994973;28;20265;-61
2022/04/27 00:27:29;;;;;;;3.57;2.53;;;;;;;1.13;61.86;101511.22;4995120;28;20049;-61
2022/04/27 00:29:56;;;;;;;2.93;2.13;;;;;;;1.07;62.17;101499.28;4995002;28;20297;-64
2022/04/27 00:32:22;;;;;;;5.87;2.00;;;;;;;1.16;61.49;101505.84;4994818;28;20777;-62
2022/04/27 00:34:48;;;;;;;2.30;1.90;;;;;;;0.98;62.15;101483.22;4994833;28;20369;-63
2022/04/27 00:37:14;;;;;;;3.27;1.90;;;;;;;1.12;61.73;101517.41;4994691;28;20120;-62
2022/04/27 00:39:40;;;;;;;3.73;2.13;;;;;;;1.10;62.50;101517.47;4994949;28;20049;-60
2022/04/27 00:42:18;;;;;;;2.57;1.90;;;;;;;1.11;62.02;101529.66;4994402;28;20266;-62
2022/04/27 00:44:45;;;;;;;2.85;2.03;;;;;;;1.06;62.40;101525.59;4994807;28;20041;-63
2022/04/27 00:47:12;;;;;;;3.00;2.07;;;;;;;1.08;62.30;101531.63;4994462;28;20035;-62
2022/04/27 00:49:52;;;;;;;2.30;2.10;;;;;;;1.03;62.64;101533.66;4994403;28;20356;-62
2022/04/27 00:52:19;;;;;;;2.43;1.70;;;;;;;0.99;62.57;101526.88;4961105;28;20274;-62
2022/04/27 00:54:51;;;;;;;4.37;2.10;;;;;;;0.99;63.38;101543.47;4995017;28;20294;-61
2022/04/27 00:57:16;;;;;;;2.60;2.40;;;;;;;0.87;62.96;101529.25;4994284;28;20278;-61
2022/04/27 00:59:42;;;;;;;2.40;2.00;;;;;;;0.98;62.96;101548.78;4994633;28;20281;-61
2022/04/27 01:02:08;;;;;;;3.50;2.03;;;;;;;0.90;63.35;101542.19;4994581;28;20038;-62
2022/04/27 01:04:35;;;;;;;3.00;2.00;;;;;;;0.71;63.00;101515.22;4994491;28;20129;-61
2022/04/27 01:07:01;;;;;;;3.77;2.10;;;;;;;0.87;63.04;101555.47;4994220;28;20062;-63
2022/04/27 01:09:29;;;;;;;5.60;1.80;;;;;;;0.87;63.71;101550.22;4994621;28;20296;-63
2022/04/27 01:11:56;;;;;;;2.37;1.70;;;;;;;0.74;63.74;101536.03;5011060;28;20277;-61
2022/04/27 01:14:22;;;;;;;2.00;1.80;;;;;;;0.84;63.64;101552.97;5013630;28;20327;-62
2022/04/27 01:16:57;;;;;;;1.63;1.53;;;;;;;0.78;63.04;101539.34;5014090;28;20308;-61
2022/04/27 01:19:24;;;;;;;1.87;1.60;;;;;;;0.88;63.18;101556.31;5013722;28;20610;-61
2022/04/27 01:21:59;;;;;;;1.70;1.50;;;;;;;0.80;62.31;101542.72;5013439;28;20284;-63
2022/04/27 01:24:24;;;;;;;3.70;1.87;;;;;;;0.85;62.57;101557.28;5014020;28;20756;-63
2022/04/27 01:26:51;;;;;;;1.50;1.40;;;;;;;0.79;63.46;101554.16;5013288;28;20264;-63
2022/04/27 01:29:24;;;;;;;1.50;1.40;;;;;;;0.76;62.89;101560.41;5013558;28;20042;-62
2022/04/27 01:31:51;;;;;;;2.23;1.40;;;;;;;0.69;62.82;101555.56;5013549;28;20272;-63
2022/04/27 01:34:17;;;;;;;1.73;1.50;;;;;;;0.72;62.95;101564.13;5013550;28;20265;-61
2022/04/27 01:36:42;;;;;;;5.67;3.27;;;;;;;0.75;63.14;101577.06;5013125;28;20277;-63
2022/04/27 01:39:08;;;;;;;2.13;1.93;;;;;;;0.69;63.02;101572.16;5013403;28;20043;-63
2022/04/27 01:41:36;;;;;;;2.20;1.70;;;;;;;0.71;62.91;101572.91;5013313;28;20104;-60
2022/04/27 01:44:02;;;;;;;2.33;1.83;;;;;;;0.73;63.06;101584.16;5013311;28;20567;-59
2022/04/27 01:46:28;;;;;;;3.70;2.13;;;;;;;0.70;62.91;101575.63;5013232;28;20744;-62
2022/04/27 01:48:55;;;;;;;3.50;1.70;;;;;;;0.65;63.41;101575.84;5013252;28;20387;-60
2022/04/27 01:54:14;;;;;;;2.03;1.80;;;;;;;0.63;63.11;101582.13;5013273;28;20116;-62
2022/04/27 01:54:15;;;;;;;2.35;1.90;;;;;;;0.56;63.51;101578.94;5013274;28;20320;-62
2022/04/27 01:59:41;;;;;;;2.00;1.80;;;;;;;0.58;63.99;101591.06;5013542;28;20277;-61
2022/04/27 02:02:08;;;;;;;2.73;2.37;;;;;;;0.57;63.82;101604.22;5017219;28;20779;-61
2022/04/27 02:04:34;;;;;;;3.53;1.80;;;;;;;-0.16;63.80;101482.19;5017691;28;20265;-60
2022/04/27 02:06:59;;;;;;;2.83;1.90;;;;;;;0.43;64.42;101578.72;5014296;28;20716;-62
2022/04/27 02:09:25;;;;;;;2.70;1.83;;;;;;;0.52;63.84;101595.75;5012618;28;20110;-61
2022/04/27 02:11:50;;;;;;;1.70;1.60;;;;;;;0.58;64.03;101598.06;5012844;28;20442;-62
2022/04/27 02:14:16;;;;;;;3.70;1.67;;;;;;;0.44;64.22;101575.19;5012768;28;20037;-62
2022/04/27 02:16:41;;;;;;;3.93;1.83;;;;;;;-0.16;63.59;101471.72;5012519;28;20532;-61
2022/04/27 02:19:07;;;;;;;2.13;1.83;;;;;;;0.53;63.60;101589.56;5015655;28;20120;-60
2022/04/27 02:21:32;;;;;;;2.07;1.60;;;;;;;0.57;64.23;101598.97;5020068;28;20042;-60
2022/04/27 02:23:58;;;;;;;4.10;1.47;;;;;;;0.54;64.47;101596.50;5022380;28;20121;-62
2022/04/27 02:26:23;;;;;;;3.60;1.77;;;;;;;0.66;63.91;101616.03;5012529;28;20034;-62
2022/04/27 02:28:50;;;;;;;1.67;1.57;;;;;;;0.65;63.90;101617.81;5012532;28;20037;-61
2022/04/27 02:31:15;;;;;;;1.93;1.80;;;;;;;0.57;64.17;101620.78;5012380;28;20029;-61
2022/04/27 02:33:41;;;;;;;1.83;1.73;;;;;;;0.59;63.77;101631.22;5012609;28;20271;-60
2022/04/27 02:36:07;;;;;;;1.87;1.77;;;;;;;0.58;63.91;101611.19;5012603;28;20412;-61
2022/04/27 02:38:32;;;;;;;2.83;1.33;;;;;;;0.61;64.14;101622.34;5012387;28;20508;-62
2022/04/27 02:40:58;;;;;;;3.43;1.63;;;;;;;0.66;63.86;101635.22;5012409;28;20048;-61
2022/04/27 02:43:23;;;;;;;1.97;1.77;;;;;;;0.69;63.77;101635.06;5012438;28;20041;-60
2022/04/27 02:45:49;;;;;;;3.80;1.97;;;;;;;0.72;63.82;101629.66;5012597;28;20444;-60
2022/04/27 02:48:15;;;;;;;2.17;1.90;;;;;;;0.65;64.22;101620.41;5012319;28;20456;-61
2022/04/27 02:53:25;;;;;;;5.07;1.50;;;;;;;0.75;63.93;101640.00;5012076;28;20276;-60
2022/04/27 02:55:50;;;;;;;3.13;1.77;;;;;;;0.78;63.71;101644.22;5013026;28;20273;-62
2022/04/27 02:58:19;;;;;;;2.77;2.00;;;;;;;0.76;63.57;101636.44;5013408;28;20092;-60
2022/04/27 03:00:45;;;;;;;2.30;1.70;;;;;;;0.89;63.05;101653.25;5012150;28;20375;-61
2022/04/27 03:03:11;;;;;;;2.30;2.03;;;;;;;1.01;63.63;101662.25;5011882;28;20712;-61
2022/04/27 03:05:36;;;;;;;5.03;1.80;;;;;;;1.12;63.29;101659.06;5012095;28;20628;-61
2022/04/27 03:08:02;;;;;;;4.43;1.87;;;;;;;1.19;62.51;101650.81;5012024;28;20252;-61
2022/04/27 03:10:28;;;;;;;2.97;1.70;;;;;;;1.28;62.06;101654.72;5012067;28;20038;-60
2022/04/27 03:12:53;;;;;;;6.27;2.50;;;;;;;1.35;61.88;101661.34;5012839;28;20115;-62
2022/04/27 03:15:19;;;;;;;3.30;1.93;;;;;;;1.47;61.58;101668.56;5013933;28;20026;-63
2022/04/27 03:17:44;;;;;;;2.00;1.80;;;;;;;1.40;61.50;101658.47;5015128;28;20041;-60
2022/04/27 03:20:10;;;;;;;8.10;2.47;;;;;;;1.49;61.39;101674.59;5013889;28;20037;-63
2022/04/27 03:22:35;;;;;;;2.07;1.83;;;;;;;1.46;61.39;101661.63;5011529;28;20595;-62
2022/04/27 03:25:01;;;;;;;2.10;1.80;;;;;;;1.61;60.94;101666.97;5011723;28;20034;-60
2022/04/27 03:27:27;;;;;;;3.33;1.63;;;;;;;1.70;60.52;101671.72;5011924;28;20396;-60
2022/04/27 03:29:52;;;;;;;1.87;1.73;;;;;;;1.73;60.20;101690.78;5011876;28;20042;-61
2022/04/27 03:32:18;;;;;;;1.80;1.60;;;;;;;1.64;60.53;101670.28;5011596;28;20356;-61
2022/04/27 03:34:44;;;;;;;2.23;1.87;;;;;;;1.74;60.70;101686.41;5011789;28;20076;-61
2022/04/27 03:37:09;;;;;;;1.93;1.53;;;;;;;1.68;60.24;101684.09;5010411;28;20612;-60
2022/04/27 03:39:35;;;;;;;3.23;1.87;;;;;;;1.58;60.50;101675.00;5015306;28;20505;-61
2022/04/27 03:42:00;;;;;;;2.40;2.13;;;;;;;1.82;60.35;101699.94;5015810;28;20038;-61
2022/04/27 03:44:26;;;;;;;4.30;2.20;;;;;;;1.91;59.50;101685.47;5015635;28;20040;-63
2022/04/27 03:46:51;;;;;;;2.47;1.90;;;;;;;1.91;59.24;101670.53;5015725;28;20069;-62
2022/04/27 03:49:17;;;;;;;2.63;2.03;;;;;;;2.15;59.74;101705.97;5014030;28;20045;-60
2022/04/27 03:51:43;;;;;;;3.67;2.60;;;;;;;2.28;59.42;101705.28;5015634;28;20041;-60
2022/04/27 03:54:08;;;;;;;6.90;2.37;;;;;;;2.34;58.76;101705.78;5015587;28;20095;-62
2022/04/27 03:56:34;;;;;;;4.33;1.53;;;;;;;2.35;59.06;101704.88;5015650;28;20045;-60
2022/04/27 03:59:03;;;;;;;3.67;1.60;;;;;;;2.39;58.39;101705.53;5015929;28;20547;-61
2022/04/27 04:01:29;;;;;;;3.43;2.33;;;;;;;2.42;58.46;101708.84;5015234;28;20046;-62
2022/04/27 04:03:57;;;;;;;4.60;1.60;;;;;;;2.38;58.34;101703.84;5015321;28;20257;-60
2022/04/27 04:06:22;;;;;;;7.67;1.87;;;;;;;2.43;59.04;101730.72;5014954;28;20026;-62
2022/04/27 04:08:48;;;;;;;4.23;2.23;;;;;;;2.43;58.31;101721.03;5015065;28;20335;-64
2022/04/27 04:11:13;;;;;;;6.90;1.90;;;;;;;2.43;58.59;101733.34;5014647;28;20072;-61
2022/04/27 04:13:39;;;;;;;1.90;1.73;;;;;;;2.38;58.75;101723.09;5014898;28;20034;-66
2022/04/27 04:16:04;;;;;;;5.37;1.80;;;;;;;2.46;58.59;101727.91;5013315;28;20065;-65
2022/04/27 04:18:30;;;;;;;8.10;2.57;;;;;;;2.53;58.46;101731.88;5014261;28;20034;-70
2022/04/27 04:20:59;;;;;;;4.60;2.20;;;;;;;2.62;58.27;101738.41;5013883;28;20034;-64
2022/04/27 04:23:24;;;;;;;4.05;1.98;;;;;;;2.56;58.05;101736.94;5013562;28;20030;-69
2022/04/27 04:28:34;;;;;;;3.03;1.90;;;;;;;2.26;58.38;101699.25;5014597;28;20061;-68
2022/04/27 04:31:02;;;;;;;4.60;2.73;;;;;;;2.73;58.11;101760.53;5014497;28;20639;-69
2022/04/27 04:33:30;;;;;;;2.80;1.83;;;;;;;2.84;57.61;101764.31;5014433;28;20580;-66
2022/04/27 04:35:57;;;;;;;;;;;;;;;2.90;57.68;101771.88;5013804;28;20689;-67
2022/04/27 04:38:22;;;;;;;6.70;1.97;;;;;;;2.74;57.40;101762.22;5012987;28;20304;-66
2022/04/27 04:40:48;;;;;;;3.70;1.57;;;;;;;2.31;58.11;101716.47;5014587;28;20755;-70
2022/04/27 04:43:14;;;;;;;1.60;1.50;;;;;;;2.55;58.21;101764.19;5014485;28;20046;-69
2022/04/27 04:45:40;;;;;;;1.90;1.37;;;;;;;2.58;58.51;101761.38;5013874;28;20030;-63
2022/04/27 04:48:06;;;;;;;3.93;1.70;;;;;;;2.64;58.45;101776.84;5013833;28;20450;-66
2022/04/27 04:50:31;;;;;;;1.97;1.60;;;;;;;2.63;58.28;101785.66;5028719;28;20351;-71
2022/04/27 04:52:57;;;;;;;3.67;1.67;;;;;;;2.70;58.55;101781.75;5014238;28;20046;-66
2022/04/27 04:55:25;;;;;;;3.50;1.50;;;;;;;2.72;58.22;101784.28;5013607;28;20074;-69
2022/04/27 04:57:52;;;;;;;2.47;1.70;;;;;;;2.72;57.96;101771.97;5012267;28;20077;-67
2022/04/27 05:00:45;;;;;;;2.57;1.77;;;;;;;2.88;58.15;101764.03;5014082;28;20323;-65
2022/04/27 05:03:11;;;;;;;4.87;1.40;;;;;;;3.19;57.67;101788.59;5013876;28;20280;-65
2022/04/27 05:05:40;;;;;;;4.50;1.53;;;;;;;3.24;56.90;101781.28;5013832;28;20272;-66
2022/04/27 05:08:07;;;;;;;5.37;1.70;;;;;;;3.28;56.82;101803.84;5013469;28;20026;-65
2022/04/27 05:10:33;;;;;;;2.73;2.00;;;;;;;3.36;56.93;101796.34;5013508;28;20284;-67
2022/04/27 05:12:59;;;;;;;2.60;1.43;;;;;;;3.26;56.94;101747.81;5013812;28;20280;-65
2022/04/27 05:15:24;;;;;;;3.00;1.70;;;;;;;3.53;56.19;101784.81;5013568;28;20065;-66
2022/04/27 05:17:50;;;;;;;2.53;1.77;;;;;;;3.56;55.97;101784.63;5013698;28;20065;-67
2022/04/27 05:20:16;;;;;;;12.70;2.83;;;;;;;3.67;56.44;101793.56;5013330;28;20042;-67
2022/04/27 05:22:44;;;;;;;10.27;2.47;;;;;;;3.74;55.77;101796.66;5012195;28;20044;-75
2022/04/27 05:25:11;;;;;;;3.63;2.28;;;;;;;3.86;55.74;101801.19;5013773;28;20504;-67
2022/04/27 05:27:38;;;;;;;3.73;1.63;;;;;;;3.90;55.09;101802.69;5013154;28;20124;-64
2022/04/27 05:32:49;;;;;;;5.03;2.30;;;;;;;3.78;55.64;101810.53;5013883;28;20265;-70
2022/04/27 05:35:15;;;;;;;5.10;1.80;;;;;;;3.71;55.27;101791.56;5013579;28;20269;-70
2022/04/27 05:37:41;;;;;;;4.17;1.77;;;;;;;3.69;56.20;101799.56;5013214;28;20077;-71
2022/04/27 05:40:08;;;;;;;8.00;1.67;;;;;;;3.85;55.50;101819.75;5013092;28;20129;-70
2022/04/27 05:42:36;;;;;;;1.90;1.60;;;;;;;3.94;54.90;101809.47;5014852;28;20739;-70
2022/04/27 05:45:03;;;;;;;6.63;1.83;;;;;;;3.97;54.94;101825.09;5003538;28;20273;-70
2022/04/27 05:47:30;;;;;;;4.97;1.90;;;;;;;3.73;54.89;101810.78;5010641;28;20268;-69
2022/04/27 05:49:55;;;;;;;3.37;1.77;;;;;;;3.77;54.40;101825.47;5013224;28;20667;-69
2022/04/27 05:52:21;;;;;;;3.17;1.80;;;;;;;3.81;54.19;101855.13;5012881;28;20037;-73
2022/04/27 05:54:48;;;;;;;2.87;1.60;;;;;;;3.68;54.75;101850.56;5013450;28;20041;-75
2022/04/27 05:57:15;;;;;;;2.23;1.70;;;;;;;3.58;55.04;101836.25;5015083;28;20057;-69
2022/04/27 05:59:43;;;;;;;1.80;1.50;;;;;;;3.80;55.00;101853.44;5014751;28;20285;-63
2022/04/27 06:02:34;;;;;;;3.53;1.47;;;;;;;3.74;54.86;101844.94;4993397;28;20301;-61
2022/04/27 06:04:59;;;;;;;3.47;1.80;;;;;;;3.79;54.67;101839.41;4993292;28;20772;-61
2022/04/27 06:07:25;;;;;;;4.97;2.50;;;;;;;3.72;54.55;101846.81;4994650;28;20042;-66
2022/04/27 06:09:50;;;;;;;1.77;1.60;;;;;;;3.92;54.23;101864.06;4976965;28;20042;-62
2022/04/27 06:12:16;;;;;;;4.17;1.80;;;;;;;4.04;54.11;101849.28;4997789;28;20046;-66
2022/04/27 06:14:41;;;;;;;3.57;1.77;;;;;;;4.15;54.01;101865.31;5012702;28;20049;-66
2022/04/27 06:17:08;;;;;;;2.40;1.77;;;;;;;4.21;53.70;101867.56;5013114;28;20473;-69
2022/04/27 06:19:33;;;;;;;3.40;2.10;;;;;;;4.42;53.17;101862.75;5014097;28;20042;-67
2022/04/27 06:21:59;;;;;;;6.37;2.23;;;;;;;4.44;52.79;101866.13;5015655;28;20758;-64
2022/04/27 06:24:26;;;;;;;2.77;2.40;;;;;;;4.65;52.61;101885.91;5015216;28;20044;-69
2022/04/27 06:26:53;;;;;;;2.77;1.80;;;;;;;4.75;51.44;101878.22;5020797;28;20044;-70
2022/04/27 06:29:19;;;;;;;1.60;1.50;;;;;;;4.79;51.53;101886.81;5016727;28;20284;-67
2022/04/27 06:31:45;;;;;;;2.90;2.00;;;;;;;4.64;51.99;101878.94;5015697;28;20322;-65
2022/04/27 06:34:12;;;;;;;4.70;1.70;;;;;;;4.53;52.39;101881.38;5013988;28;20085;-68
2022/04/27 06:36:39;;;;;;;2.10;1.80;;;;;;;4.70;51.09;101900.59;5014832;28;20375;-65
2022/04/27 06:39:07;;;;;;;4.13;1.77;;;;;;;4.65;50.69;101900.88;5016975;28;20088;-69
2022/04/27 06:41:33;;;;;;;1.65;1.55;;;;;;;4.47;50.79;101896.75;5016864;28;20268;-68
2022/04/27 06:43:58;;;;;;;3.37;2.00;;;;;;;4.44;51.63;101903.06;5019459;28;20041;-75
2022/04/27 06:46:24;;;;;;;5.63;2.07;;;;;;;4.49;51.64;101915.97;5015470;28;20042;-64
2022/04/27 06:48:49;;;;;;;2.27;2.00;;;;;;;4.37;52.07;101898.28;5011985;28;20084;-64
2022/04/27 06:51:17;;;;;;;2.37;1.80;;;;;;;4.62;51.99;101908.97;5012369;28;20037;-64
2022/04/27 06:53:44;;;;;;;2.08;1.67;;;;;;;4.90;51.22;101915.97;5012236;28;20385;-64
2022/04/27 06:56:09;;;;;;;2.73;1.70;;;;;;;4.86;50.06;101888.09;5012079;28;20405;-66
2022/04/27 06:58:38;;;;;;;2.90;1.70;;;;;;;4.64;49.38;101867.53;5011735;28;20292;-64
2022/04/27 07:01:04;;;;;;;2.75;1.60;;;;;;;4.96;50.04;101915.63;5010701;28;20111;-64
2022/04/27 07:03:32;;;;;;;2.43;2.03;;;;;;;5.02;50.36;101925.78;5011933;28;20045;-67
2022/04/27 07:05:57;;;;;;;3.07;1.70;;;;;;;5.04;50.78;101923.88;5011972;28;20311;-68
2022/04/27 07:08:24;;;;;;;2.27;1.57;;;;;;;4.98;50.14;101913.72;5012072;28;20488;-68
2022/04/27 07:10:49;;;;;;;3.47;2.20;;;;;;;5.12;50.30;101926.88;5011895;28;20041;-72
2022/04/27 07:13:15;;;;;;;3.60;2.13;;;;;;;5.32;49.17;101930.03;5012528;28;20273;-66
2022/04/27 07:15:41;;;;;;;5.23;2.00;;;;;;;5.44;48.10;101914.19;5015779;28;20041;-72
2022/04/27 07:18:06;;;;;;;1.83;1.70;;;;;;;5.54;48.01;101943.53;5015850;28;20116;-69
2022/04/27 07:20:32;;;;;;;4.10;1.53;;;;;;;5.40;47.80;101946.22;5016262;28;20386;-67
2022/04/27 07:22:57;;;;;;;4.27;2.73;;;;;;;5.22;48.51;101954.41;5015996;28;20516;-69
2022/04/27 07:25:23;;;;;;;1.83;1.73;;;;;;;5.20;48.73;101940.44;5014998;28;20069;-67
2022/04/27 07:27:49;;;;;;;1.40;1.30;;;;;;;5.03;45.28;101895.78;5015758;28;20053;-69
2022/04/27 07:30:14;;;;;;;2.10;1.40;;;;;;;4.93;44.83;101899.97;5015417;28;20049;-70
2022/04/27 07:32:41;;;;;;;2.77;2.00;;;;;;;5.31;46.20;101946.81;5030676;28;20091;-72
2022/04/27 07:35:07;;;;;;;5.03;1.77;;;;;;;5.43;44.91;101961.84;5016082;28;20038;-67
2022/04/27 07:37:37;;;;;;;3.43;1.87;;;;;;;5.71;44.62;101958.25;5015838;28;20257;-64
2022/04/27 07:40:03;;;;;;;3.37;1.73;;;;;;;5.56;43.71;101939.84;5015360;28;20261;-64
2022/04/27 07:42:29;;;;;;;2.00;1.90;;;;;;;5.50;44.63;101952.59;5015266;28;20261;-63
2022/04/27 07:44:54;;;;;;;4.97;1.63;;;;;;;4.76;44.63;101847.41;5015335;28;20331;-65
2022/04/27 07:47:20;;;;;;;2.00;1.73;;;;;;;5.38;45.02;101953.38;5015235;28;20109;-65
2022/04/27 07:49:47;;;;;;;2.47;1.90;;;;;;;5.14;44.96;101948.75;5015506;28;20457;-64
2022/04/27 07:52:13;;;;;;;2.27;1.40;;;;;;;5.37;45.91;101949.91;5015204;28;20034;-63
2022/04/27 07:54:41;;;;;;;2.23;2.03;;;;;;;5.65;44.84;101971.88;5015309;28;20357;-60
2022/04/27 07:57:07;;;;;;;2.58;1.80;;;;;;;5.77;44.21;101969.25;5014936;28;20049;-65
2022/04/27 07:59:33;;;;;;;5.00;1.80;;;;;;;5.45;45.51;101971.38;5015062;28;20046;-68
2022/04/27 08:01:58;;;;;;;2.60;1.97;;;;;;;5.24;45.79;101967.50;4997174;28;20792;-73
2022/04/27 08:04:24;;;;;;;5.80;2.33;;;;;;;5.30;46.11;101972.38;5015071;28;20042;-66
2022/04/27 08:06:50;;;;;;;3.60;2.03;;;;;;;5.04;46.06;101983.75;5015197;28;20469;-70
2022/04/27 08:09:16;;;;;;;3.33;2.43;;;;;;;4.62;46.96;101961.72;5013750;28;20080;-67
2022/04/27 08:11:42;;;;;;;2.77;2.37;;;;;;;4.45;47.36;101954.88;5015084;28;20033;-69
2022/04/27 08:14:08;;;;;;;4.30;2.10;;;;;;;4.24;48.28;101938.56;5015070;28;20269;-67
2022/04/27 08:16:34;;;;;;;3.30;2.13;;;;;;;4.49;48.55;101976.63;5015383;28;20087;-67
2022/04/27 08:18:59;;;;;;;2.83;1.90;;;;;;;4.59;48.30;101996.22;5015225;28;20409;-68
2022/04/27 08:21:27;;;;;;;3.80;2.57;;;;;;;4.61;45.58;101994.34;5014951;28;20092;-66
2022/04/27 08:23:53;;;;;;;4.33;1.70;;;;;;;4.53;46.10;101996.59;5014693;28;20068;-65
2022/04/27 08:26:19;;;;;;;2.60;1.50;;;;;;;4.41;45.56;101971.84;5014550;28;20323;-65
2022/04/27 08:28:48;;;;;;;4.10;1.70;;;;;;;4.58;44.80;101999.81;5013562;28;20296;-65
2022/04/27 08:31:17;;;;;;;5.33;1.77;;;;;;;4.51;45.11;102004.63;5014868;28;20116;-67
2022/04/27 08:33:42;;;;;;;;;;;;;;;4.49;45.22;102016.22;5015020;28;20996;-63
2022/04/27 08:36:08;;;;;;;2.73;2.17;;;;;;;4.12;45.64;102028.94;5014531;28;19918;-68
2022/04/27 08:38:35;;;;;;;2.47;1.70;;;;;;;3.81;46.52;102037.78;5014389;28;20034;-67
2022/04/27 08:41:01;;;;;;;6.80;1.83;;;;;;;3.50;47.55;102006.22;5014557;28;20168;-66
2022/04/27 08:43:27;;;;;;;8.40;1.90;;;;;;;3.41;50.43;102034.75;5012866;28;20260;-68
2022/04/27 08:45:55;;;;;;;5.30;1.73;;;;;;;3.45;51.48;102063.56;5014929;28;20332;-67
2022/04/27 08:48:21;;;;;;;4.73;2.10;;;;;;;3.29;52.37;102045.97;5014280;28;20030;-72
2022/04/27 08:50:48;;;;;;;4.17;1.80;;;;;;;3.58;51.55;102054.91;5014652;28;20265;-67
2022/04/27 08:53:14;;;;;;;4.73;1.80;;;;;;;3.83;48.83;102062.28;5014121;28;20273;-70
2022/04/27 08:55:41;;;;;;;3.63;1.93;;;;;;;3.90;49.53;102055.69;5013735;28;20806;-65
2022/04/27 08:58:12;;;;;;;3.07;1.67;;;;;;;3.91;48.49;102067.94;5013673;28;20451;-65
2022/04/27 09:00:38;;;;;;;4.50;1.90;;;;;;;3.93;48.67;102067.84;5013862;28;20644;-68
2022/04/27 09:03:37;;;;;;;3.73;1.90;;;;;;;3.83;49.11;102070.19;5014196;28;20284;-68
2022/04/27 09:06:10;;;;;;;5.30;2.10;;;;;;;3.91;49.84;102067.94;4970654;28;20846;-66
2022/04/27 09:08:45;;;;;;;8.33;1.80;;;;;;;3.89;49.60;102054.00;5014051;28;20292;-68
2022/04/27 09:11:27;;;;;;;8.03;2.63;;;;;;;3.81;49.82;102066.78;5014369;28;20335;-66
2022/04/27 09:13:58;;;;;;;1.70;1.20;;;;;;;3.65;49.30;102061.50;5013800;28;20271;-68
2022/04/27 09:20:46;;;;;;;5.40;1.70;;;;;;;3.75;48.59;102080.28;5012499;28;20311;-68
2022/04/27 09:22:06;;;;;;;2.33;1.40;;;;;;;3.55;51.32;102091.09;5014419;28;20276;-67
2022/04/27 09:24:51;;;;;;;1.67;1.57;;;;;;;3.53;52.97;102092.97;5014186;28;20277;-72
2022/04/27 09:27:19;;;;;;;4.50;1.70;;;;;;;3.69;52.61;102084.13;4994132;28;20277;-65
2022/04/27 09:30:14;;;;;;;1.60;1.20;;;;;;;4.23;48.66;102099.50;4997010;28;20294;-71
2022/04/27 09:32:50;;;;;;;1.57;1.47;;;;;;;4.40;46.64;102086.19;4991596;28;20291;-71
2022/04/27 09:35:28;;;;;;;1.30;1.10;;;;;;;4.70;45.53;102077.41;4986660;28;20261;-72
2022/04/27 09:37:54;;;;;;;3.35;1.80;;;;;;;4.79;43.20;102084.75;5009321;28;20817;-70
2022/04/27 09:40:19;;;;;;;4.83;1.20;;;;;;;4.97;41.95;102102.13;5013483;28;20041;-66
2022/04/27 09:42:46;;;;;;;1.27;1.17;;;;;;;4.89;41.77;102099.06;5013400;28;20033;-72
2022/04/27 09:45:23;;;;;;;1.73;1.50;;;;;;;4.98;42.27;102112.59;4995593;28;20044;-68
2022/04/27 09:47:53;;;;;;;2.13;1.50;;;;;;;5.07;43.78;102108.53;5011914;28;20774;-67
2022/04/27 09:50:19;;;;;;;1.93;1.70;;;;;;;5.00;44.51;102096.66;5014564;28;20338;-68
2022/04/27 09:52:46;;;;;;;5.50;1.67;;;;;;;5.04;44.25;102107.88;5016570;28;20367;-68
2022/04/27 09:55:11;;;;;;;2.13;1.60;;;;;;;4.95;44.21;102096.09;5016787;28;20033;-68
2022/04/27 09:57:39;;;;;;;4.70;1.80;;;;;;;5.02;43.65;102100.03;5013134;28;20817;-70
2022/04/27 10:00:06;;;;;;;1.73;1.37;;;;;;;5.22;42.78;102107.59;5014254;28;20041;-69
2022/04/27 10:02:34;;;;;;;5.00;2.77;;;;;;;5.41;42.06;102106.41;5013359;28;20261;-68
2022/04/27 10:05:00;;;;;;;5.65;1.83;;;;;;;5.50;41.88;102121.72;5013777;28;20269;-68
2022/04/27 10:07:32;;;;;;;1.58;1.40;;;;;;;5.55;40.71;102109.06;5015135;28;20053;-63
2022/04/27 10:09:59;;;;;;;2.88;1.58;;;;;;;5.81;40.98;102126.75;5015414;28;20084;-65
2022/04/27 10:12:24;;;;;;;3.80;1.80;;;;;;;5.96;39.72;102129.38;4996098;28;20129;-63
2022/04/27 10:14:50;;;;;;;5.13;1.70;;;;;;;5.76;39.95;102126.16;5013174;28;20360;-68
2022/04/27 10:17:16;;;;;;;4.03;1.50;;;;;;;5.85;39.67;102137.97;5012416;28;20045;-63
2022/04/27 10:19:46;;;;;;;2.00;1.47;;;;;;;5.97;40.24;102116.03;5012845;28;20045;-62
2022/04/27 10:22:44;;;;;;;1.53;1.20;;;;;;;6.00;40.04;102136.16;5012495;28;20038;-71
2022/04/27 10:25:11;;;;;;;1.90;1.42;;;;;;;5.72;40.58;102087.66;4969000;28;20284;-70
2022/04/27 10:27:41;;;;;;;3.93;1.70;;;;;;;5.78;40.39;102126.06;5012267;28;20073;-66
2022/04/27 10:30:07;;;;;;;1.67;1.57;;;;;;;5.59;40.45;102094.69;5012849;28;20052;-65
2022/04/27 10:32:51;;;;;;;4.93;1.80;;;;;;;5.83;40.54;102143.34;5012491;28;20292;-65
2022/04/27 10:35:22;;;;;;;1.70;1.60;;;;;;;5.77;40.33;102151.66;5012525;28;20335;-65
2022/04/27 10:37:54;;;;;;;3.03;2.03;;;;;;;5.66;40.44;102133.00;5012310;28;20376;-67
2022/04/27 10:40:35;;;;;;;3.97;1.40;;;;;;;5.68;41.54;102146.97;5012510;28;20264;-73
2022/04/27 10:43:08;;;;;;;5.30;1.43;;;;;;;5.77;41.02;102148.16;5012182;28;20609;-64
2022/04/27 10:45:39;;;;;;;5.30;2.13;;;;;;;5.48;41.14;102091.88;5012469;28;20041;-67
2022/04/27 10:48:07;;;;;;;2.33;1.77;;;;;;;5.67;41.87;102141.78;5011510;28;20304;-66
2022/04/27 10:50:37;;;;;;;7.35;1.45;;;;;;;5.58;44.28;102156.44;5011699;28;20819;-68
2022/04/27 10:53:23;;;;;;;2.83;2.00;;;;;;;5.32;46.21;102150.13;5012192;28;20501;-67
2022/04/27 10:55:53;;;;;;;4.10;1.73;;;;;;;5.09;47.00;102175.28;5012011;28;20810;-70
2022/04/27 10:58:33;;;;;;;3.27;1.70;;;;;;;4.56;47.58;102155.56;5012263;28;20288;-69
2022/04/27 11:01:01;;;;;;;3.43;1.90;;;;;;;4.31;47.93;102181.66;5011649;28;20292;-68
2022/04/27 11:03:38;;;;;;;2.47;1.63;;;;;;;4.15;49.13;102186.13;5011703;28;20617;-67
2022/04/27 11:06:09;;;;;;;2.47;1.47;;;;;;;3.84;50.39;102179.06;5011856;28;20477;-67
2022/04/27 11:08:34;;;;;;;2.30;1.50;;;;;;;3.62;52.21;102208.38;5011955;28;20324;-67
2022/04/27 11:11:07;;;;;;;4.90;1.47;;;;;;;3.34;53.15;102220.38;5011850;28;20292;-64
2022/04/27 11:13:35;;;;;;;6.80;1.90;;;;;;;3.30;54.76;102226.72;5011862;28;20026;-64
2022/04/27 11:16:13;;;;;;;4.60;1.63;;;;;;;2.76;54.85;102181.25;5011961;28;20365;-80
2022/04/27 11:18:48;;;;;;;1.83;1.43;;;;;;;2.89;58.06;102234.13;5012527;28;20520;-67
2022/04/27 11:21:14;;;;;;;2.40;1.67;;;;;;;2.61;59.15;102210.13;5011865;28;20622;-69
2022/04/27 11:23:40;;;;;;;8.20;1.40;;;;;;;2.58;58.56;102221.63;5011705;28;20292;-65
2022/04/27 11:26:06;;;;;;;1.43;1.30;;;;;;;2.52;58.01;102205.28;4994370;28;20034;-66
2022/04/27 11:28:34;;;;;;;1.50;1.30;;;;;;;2.32;57.60;102191.38;5011634;28;20041;-65
2022/04/27 11:31:00;;;;;;;1.58;1.48;;;;;;;2.59;57.12;102204.91;4994433;28;20261;-65
2022/04/27 11:33:27;;;;;;;1.37;1.27;;;;;;;2.82;55.73;102202.91;5011791;28;20046;-64
2022/04/27 11:35:52;;;;;;;1.30;1.10;;;;;;;3.13;53.66;102205.69;5011619;28;20265;-70
2022/04/27 11:38:19;;;;;;;2.27;1.93;;;;;;;3.35;53.62;102201.00;5011531;28;20295;-63
2022/04/27 11:40:46;;;;;;;1.67;1.40;;;;;;;3.77;52.87;102199.66;5011655;28;20416;-64
2022/04/27 11:43:13;;;;;;;2.13;1.10;;;;;;;3.66;48.43;102120.31;5011814;28;20269;-63
2022/04/27 11:45:38;;;;;;;1.67;1.30;;;;;;;4.34;48.74;102186.78;5011805;28;20819;-63
2022/04/27 11:48:10;;;;;;;4.10;1.80;;;;;;;4.46;49.18;102179.94;5011334;28;20388;-67
2022/04/27 11:50:38;;;;;;;2.43;1.53;;;;;;;4.30;49.22;102127.22;5010583;28;20096;-65